createdAt,value
2022-08-25T00:01:51.924Z,19.17
2022-08-25T00:04:21.640Z,19.18
2022-08-25T00:06:51.111Z,19.22
2022-08-25T00:09:22.199Z,19.26
2022-08-25T00:11:51.857Z,19.28
2022-08-25T00:14:24.373Z,19.32
2022-08-25T00:16:52.941Z,19.32
2022-08-25T00:19:28.224Z,19.33
2022-08-25T00:21:56.486Z,19.35
2022-08-25T00:24:24.930Z,19.37
2022-08-25T00:26:55.218Z,19.36
2022-08-25T00:29:27.905Z,19.36
2022-08-25T00:31:56.435Z,19.37
2022-08-25T00:34:34.119Z,19.37
2022-08-25T00:37:04.166Z,19.37
2022-08-25T00:39:31.898Z,19.37
2022-08-25T00:42:00.682Z,19.37
2022-08-25T00:44:30.484Z,19.36
2022-08-25T00:47:01.039Z,19.36
2022-08-25T00:49:55.181Z,19.35
2022-08-25T00:52:28.156Z,19.30
2022-08-25T00:55:08.159Z,19.24
2022-08-25T00:57:47.075Z,19.21
2022-08-25T01:00:23.229Z,19.19
2022-08-25T01:02:51.745Z,19.20
2022-08-25T01:05:20.607Z,19.20
2022-08-25T01:07:50.123Z,19.21
2022-08-25T01:10:19.702Z,19.22
2022-08-25T01:12:49.107Z,19.22
2022-08-25T01:15:17.140Z,19.20
2022-08-25T01:17:51.398Z,19.18
2022-08-25T01:20:22.823Z,19.17
2022-08-25T01:22:58.088Z,19.16
2022-08-25T01:25:42.335Z,19.15
2022-08-25T01:28:10.919Z,19.14
2022-08-25T01:30:39.540Z,19.15
2022-08-25T01:33:10.369Z,19.16
2022-08-25T01:35:40.350Z,19.15
2022-08-25T01:38:08.304Z,19.15
2022-08-25T01:40:39.567Z,19.18
2022-08-25T01:43:12.961Z,19.18
2022-08-25T01:45:44.335Z,19.20
2022-08-25T01:48:15.497Z,19.19
2022-08-25T01:50:44.158Z,19.19
2022-08-25T01:53:19.485Z,19.16
2022-08-25T01:55:55.244Z,19.14
2022-08-25T01:58:42.763Z,19.13
2022-08-25T02:01:15.967Z,19.15
2022-08-25T02:03:45.077Z,19.18
2022-08-25T02:06:17.592Z,19.20
2022-08-25T02:08:46.731Z,19.24
2022-08-25T02:11:15.386Z,19.27
2022-08-25T02:13:42.987Z,19.25
2022-08-25T02:16:18.284Z,19.27
2022-08-25T02:18:47.127Z,19.29
2022-08-25T02:21:15.157Z,19.24
2022-08-25T02:23:43.483Z,19.20
2022-08-25T02:26:11.300Z,19.17
2022-08-25T02:28:39.387Z,19.15
2022-08-25T02:31:07.127Z,19.14
2022-08-25T02:33:34.846Z,19.13
2022-08-25T02:36:03.092Z,19.11
2022-08-25T02:38:30.980Z,19.12
2022-08-25T02:41:00.734Z,19.14
2022-08-25T02:43:29.555Z,19.19
2022-08-25T02:45:57.398Z,19.14
2022-08-25T02:48:25.604Z,19.09
2022-08-25T02:50:53.296Z,19.09
2022-08-25T02:53:21.627Z,19.10
2022-08-25T02:55:49.266Z,19.09
2022-08-25T02:58:16.912Z,19.06
2022-08-25T03:00:46.265Z,19.05
2022-08-25T03:03:15.259Z,19.06
2022-08-25T03:05:43.062Z,19.10
2022-08-25T03:08:11.112Z,19.17
2022-08-25T03:10:39.135Z,19.12
2022-08-25T03:13:07.274Z,18.88
2022-08-25T03:15:37.704Z,18.64
2022-08-25T03:18:06.333Z,18.50
2022-08-25T03:20:36.482Z,18.37
2022-08-25T03:23:05.654Z,18.33
2022-08-25T03:25:48.378Z,18.32
2022-08-25T03:28:17.198Z,18.28
2022-08-25T03:30:45.204Z,18.26
2022-08-25T03:33:13.047Z,18.32
2022-08-25T03:35:41.359Z,18.33
2022-08-25T03:38:09.055Z,18.38
2022-08-25T03:40:37.044Z,18.41
2022-08-25T03:43:04.923Z,18.42
2022-08-25T03:45:32.592Z,18.41
2022-08-25T03:48:00.425Z,18.33
2022-08-25T03:50:28.009Z,18.20
2022-08-25T03:52:56.991Z,18.11
2022-08-25T03:55:25.959Z,18.05
2022-08-25T03:57:54.835Z,18.00
2022-08-25T04:00:23.633Z,17.94
2022-08-25T04:02:51.400Z,17.87
2022-08-25T04:05:20.187Z,17.81
2022-08-25T04:07:47.879Z,17.75
2022-08-25T04:10:15.651Z,17.70
2022-08-25T04:12:43.362Z,17.69
2022-08-25T04:15:11.413Z,17.70
2022-08-25T04:17:40.057Z,17.74
2022-08-25T04:20:10.636Z,17.76
2022-08-25T04:22:45.188Z,17.76
2022-08-25T04:25:13.759Z,17.81
2022-08-25T04:27:42.267Z,17.85
2022-08-25T04:30:10.928Z,17.86
2022-08-25T04:32:38.691Z,17.87
2022-08-25T04:35:07.499Z,17.85
2022-08-25T04:37:35.217Z,17.86
2022-08-25T04:40:04.637Z,17.87
2022-08-25T04:42:32.756Z,17.91
2022-08-25T04:45:01.814Z,17.91
2022-08-25T04:47:29.878Z,17.93
2022-08-25T04:49:57.491Z,17.93
2022-08-25T04:52:25.145Z,17.91
2022-08-25T04:54:53.044Z,17.89
2022-08-25T04:57:20.753Z,17.87
2022-08-25T04:59:48.712Z,17.89
2022-08-25T05:02:16.311Z,17.94
2022-08-25T05:04:44.002Z,17.98
2022-08-25T05:07:11.642Z,17.94
2022-08-25T05:09:39.396Z,17.92
2022-08-25T05:12:07.331Z,17.94
2022-08-25T05:14:35.178Z,17.97
2022-08-25T05:17:03.208Z,18.02
2022-08-25T05:19:31.837Z,18.06
2022-08-25T05:21:59.473Z,18.12
2022-08-25T05:24:28.219Z,18.20
2022-08-25T05:26:56.430Z,18.24
2022-08-25T05:29:24.258Z,18.27
2022-08-25T05:31:51.921Z,18.29
2022-08-25T05:34:20.263Z,18.30
2022-08-25T05:36:48.679Z,18.34
2022-08-25T05:39:17.206Z,18.38
2022-08-25T05:41:46.158Z,18.41
2022-08-25T05:44:19.168Z,18.47
2022-08-25T05:46:49.304Z,18.52
2022-08-25T05:49:17.304Z,18.56
2022-08-25T05:51:44.897Z,18.59
2022-08-25T05:54:12.492Z,18.62
2022-08-25T05:56:40.160Z,18.64
2022-08-25T05:59:09.651Z,18.66
2022-08-25T06:01:53.541Z,18.67
2022-08-25T06:04:22.552Z,18.70
2022-08-25T06:06:53.401Z,18.70
2022-08-25T06:09:22.344Z,18.71
2022-08-25T06:11:54.508Z,18.68
2022-08-25T06:14:23.869Z,18.67
2022-08-25T06:16:52.386Z,18.70
2022-08-25T06:19:21.106Z,18.72
2022-08-25T06:21:52.748Z,18.77
2022-08-25T06:24:20.318Z,18.87
2022-08-25T06:26:47.971Z,18.90
2022-08-25T06:29:15.594Z,18.91
2022-08-25T06:31:44.095Z,18.91
2022-08-25T06:34:12.739Z,18.99
2022-08-25T06:36:40.860Z,19.05
2022-08-25T06:39:10.628Z,19.06
2022-08-25T06:41:39.085Z,19.01
2022-08-25T06:44:06.812Z,19.08
2022-08-25T06:46:36.837Z,19.14
2022-08-25T06:49:06.656Z,19.10
2022-08-25T06:51:35.961Z,19.11
2022-08-25T06:54:06.520Z,19.19
2022-08-25T06:56:34.293Z,19.19
2022-08-25T06:59:05.893Z,19.09
2022-08-25T07:01:34.848Z,19.02
2022-08-25T07:04:10.125Z,19.02
2022-08-25T07:06:39.697Z,19.00
2022-08-25T07:09:09.271Z,18.99
2022-08-25T07:11:37.959Z,19.00
2022-08-25T07:14:08.079Z,19.01
2022-08-25T07:16:36.589Z,19.04
2022-08-25T07:19:05.483Z,19.05
2022-08-25T07:21:37.367Z,19.09
2022-08-25T07:24:08.733Z,19.15
2022-08-25T07:26:39.117Z,19.16
2022-08-25T07:29:15.717Z,19.15
2022-08-25T07:31:43.461Z,19.18
2022-08-25T07:34:28.486Z,19.17
2022-08-25T07:36:57.670Z,19.23
2022-08-25T07:39:28.494Z,19.23
2022-08-25T07:41:57.204Z,19.25
2022-08-25T07:44:27.918Z,19.24
2022-08-25T07:46:56.397Z,19.23
2022-08-25T07:49:26.547Z,19.26
2022-08-25T07:52:06.437Z,19.26
2022-08-25T07:54:38.025Z,19.28
2022-08-25T07:57:08.777Z,19.30
2022-08-25T07:59:44.354Z,19.28
2022-08-25T08:02:18.270Z,19.27
2022-08-25T08:04:50.278Z,19.30
2022-08-25T08:07:20.410Z,19.35
2022-08-25T08:09:55.800Z,19.34
2022-08-25T08:12:35.287Z,19.35
2022-08-25T08:15:04.920Z,19.39
2022-08-25T08:17:39.666Z,19.41
2022-08-25T08:20:10.533Z,19.42
2022-08-25T08:22:41.229Z,19.47
2022-08-25T08:25:13.688Z,19.47
2022-08-25T08:27:47.151Z,19.45
2022-08-25T08:30:14.966Z,19.43
2022-08-25T08:33:06.295Z,19.44
2022-08-25T08:35:30.914Z,19.48
2022-08-25T08:37:59.615Z,19.53
2022-08-25T08:40:29.119Z,19.60
2022-08-25T08:43:13.334Z,19.63
2022-08-25T08:45:51.876Z,19.63
2022-08-25T08:48:52.877Z,19.68
2022-08-25T08:51:25.029Z,19.76
2022-08-25T08:54:00.094Z,19.87
2022-08-25T08:56:45.374Z,19.93
2022-08-25T08:59:21.912Z,20.06
2022-08-25T09:02:01.062Z,20.14
2022-08-25T09:04:37.299Z,20.24
2022-08-25T09:07:12.011Z,20.31
2022-08-25T09:09:43.156Z,20.40
2022-08-25T09:12:20.739Z,20.45
2022-08-25T09:14:57.741Z,20.58
2022-08-25T09:17:54.730Z,20.63
2022-08-25T09:20:32.087Z,20.74
2022-08-25T09:23:20.218Z,20.85
2022-08-25T09:26:13.137Z,20.97
2022-08-25T09:29:17.268Z,21.09
2022-08-25T09:31:45.491Z,21.29
2022-08-25T09:34:19.568Z,21.40
2022-08-25T09:36:48.585Z,21.53
2022-08-25T09:39:17.002Z,21.67
2022-08-25T09:41:51.283Z,21.81
2022-08-25T09:44:24.304Z,21.99
2022-08-25T09:47:08.305Z,22.13
2022-08-25T09:49:40.149Z,22.25
2022-08-25T09:52:33.639Z,22.42
2022-08-25T09:55:01.500Z,22.58
2022-08-25T09:57:34.853Z,22.64
2022-08-25T10:00:19.728Z,22.75
2022-08-25T10:03:22.809Z,22.85
2022-08-25T10:05:56.620Z,22.99
2022-08-25T10:08:31.479Z,23.09
2022-08-25T10:11:01.644Z,23.21
2022-08-25T10:13:42.217Z,23.30
2022-08-25T10:16:35.811Z,23.41
2022-08-25T10:19:28.016Z,23.46
2022-08-25T10:22:21.633Z,23.57
2022-08-25T10:24:49.948Z,23.58
2022-08-25T10:27:29.288Z,23.58
2022-08-25T10:30:17.938Z,23.68
2022-08-25T10:33:13.063Z,23.71
2022-08-25T10:35:47.877Z,23.75
2022-08-25T10:38:39.694Z,23.84
2022-08-25T10:41:42.933Z,23.87
2022-08-25T10:44:30.958Z,23.89
2022-08-25T10:47:29.541Z,23.93
2022-08-25T10:50:19.408Z,24.06
2022-08-25T10:53:09.589Z,24.22
2022-08-25T10:56:03.146Z,24.32
2022-08-25T10:59:06.230Z,24.36
2022-08-25T11:02:03.192Z,24.43
2022-08-25T11:04:37.987Z,24.47
2022-08-25T11:07:20.516Z,24.49
2022-08-25T11:09:51.991Z,24.69
2022-08-25T11:12:40.153Z,24.86
2022-08-25T11:15:18.108Z,25.03
2022-08-25T11:17:54.949Z,25.18
2022-08-25T11:20:33.397Z,25.32
2022-08-25T11:23:22.893Z,25.52
2022-08-25T11:25:56.275Z,25.65
2022-08-25T11:28:40.200Z,25.68
2022-08-25T11:31:10.959Z,25.69
2022-08-25T11:33:39.362Z,25.71
2022-08-25T11:36:29.397Z,25.86
2022-08-25T11:39:34.426Z,26.17
2022-08-25T11:42:18.262Z,26.45
2022-08-25T11:45:08.023Z,26.69
2022-08-25T11:48:12.563Z,26.89
2022-08-25T11:51:05.274Z,27.00
2022-08-25T11:54:11.931Z,26.96
2022-08-25T11:56:41.734Z,27.11
2022-08-25T11:59:10.324Z,27.11
2022-08-25T12:01:44.514Z,27.15
2022-08-25T12:04:33.839Z,27.36
2022-08-25T12:07:08.754Z,27.84
2022-08-25T12:09:57.101Z,28.12
2022-08-25T12:12:45.846Z,28.46
2022-08-25T12:15:34.743Z,28.75
2022-08-25T12:18:24.390Z,29.01
2022-08-25T12:20:56.148Z,29.29
2022-08-25T12:23:33.923Z,29.49
2022-08-25T12:26:08.134Z,29.61
2022-08-25T12:29:11.259Z,29.76
2022-08-25T12:31:54.854Z,29.88
2022-08-25T12:34:43.022Z,30.05
2022-08-25T12:37:16.417Z,30.28
2022-08-25T12:39:51.825Z,30.50
2022-08-25T12:42:31.200Z,30.60
2022-08-25T12:45:17.567Z,30.69
2022-08-25T12:47:49.892Z,30.80
2022-08-25T12:50:39.494Z,30.97
2022-08-25T12:53:11.406Z,31.18
2022-08-25T12:55:46.642Z,31.34
2022-08-25T12:58:14.287Z,31.41
2022-08-25T13:01:01.954Z,31.51
2022-08-25T13:06:30.350Z,31.79
2022-08-25T13:09:13.264Z,31.84
2022-08-25T13:11:56.555Z,31.95
2022-08-25T13:14:38.855Z,32.06
2022-08-25T13:17:09.541Z,32.18
2022-08-25T13:19:38.118Z,32.30
2022-08-25T13:22:16.485Z,32.45
2022-08-25T13:24:47.427Z,32.56
2022-08-25T13:27:24.041Z,32.62
2022-08-25T13:29:58.324Z,32.75
2022-08-25T13:32:35.662Z,32.80
2022-08-25T13:35:22.262Z,32.83
2022-08-25T13:37:50.588Z,32.86
2022-08-25T13:40:36.546Z,32.82
2022-08-25T13:43:11.565Z,32.97
2022-08-25T13:45:42.969Z,33.11
2022-08-25T13:48:21.116Z,33.16
2022-08-25T13:50:52.008Z,33.19
2022-08-25T13:53:26.654Z,33.12
2022-08-25T13:56:00.670Z,33.15
2022-08-25T13:58:45.612Z,33.16
2022-08-25T14:01:48.211Z,33.26
2022-08-25T14:04:33.875Z,33.17
2022-08-25T14:07:14.262Z,33.21
2022-08-25T14:10:07.013Z,33.25
2022-08-25T14:13:08.990Z,33.37
2022-08-25T14:15:38.613Z,33.45
2022-08-25T14:18:13.978Z,33.49
2022-08-25T14:20:50.667Z,33.54
2022-08-25T14:23:22.182Z,33.69
2022-08-25T14:25:51.693Z,33.79
2022-08-25T14:28:23.230Z,33.86
2022-08-25T14:30:58.402Z,33.93
2022-08-25T14:33:33.998Z,33.94
2022-08-25T14:36:04.737Z,34.03
2022-08-25T14:38:34.213Z,34.12
2022-08-25T14:41:01.900Z,34.22
2022-08-25T14:43:31.995Z,34.24
2022-08-25T14:46:16.776Z,34.22
2022-08-25T14:48:46.812Z,34.25
2022-08-25T14:51:16.549Z,34.25
2022-08-25T14:53:44.295Z,34.22
2022-08-25T14:56:12.093Z,34.23
2022-08-25T14:58:50.868Z,34.23
2022-08-25T15:01:28.693Z,34.21
2022-08-25T15:04:07.002Z,34.23
2022-08-25T15:06:36.603Z,34.30
2022-08-25T15:09:11.186Z,34.31
2022-08-25T15:11:42.412Z,34.41
2022-08-25T15:14:13.089Z,34.44
2022-08-25T15:16:45.338Z,34.44
2022-08-25T15:19:16.121Z,34.48
2022-08-25T15:21:46.168Z,34.48
2022-08-25T15:24:17.508Z,34.17
2022-08-25T15:29:20.673Z,33.54
2022-08-25T15:31:48.322Z,33.23
2022-08-25T15:34:16.236Z,32.82
2022-08-25T15:36:43.928Z,32.58
2022-08-25T15:39:11.875Z,32.40
2022-08-25T15:41:40.513Z,32.21
2022-08-25T15:44:11.460Z,32.07
2022-08-25T15:46:41.463Z,31.90
2022-08-25T15:49:09.638Z,31.67
2022-08-25T15:51:38.899Z,31.38
2022-08-25T15:54:07.513Z,31.16
2022-08-25T15:56:36.857Z,31.04
2022-08-25T15:59:05.312Z,30.86
2022-08-25T16:01:37.165Z,30.72
2022-08-25T16:04:05.256Z,30.65
2022-08-25T16:06:34.028Z,30.54
2022-08-25T16:09:02.644Z,30.51
2022-08-25T16:11:35.134Z,30.48
2022-08-25T16:14:02.973Z,30.45
2022-08-25T16:16:31.940Z,30.40
2022-08-25T16:19:00.515Z,30.31
2022-08-25T16:21:33.414Z,30.18
2022-08-25T16:24:07.754Z,30.06
2022-08-25T16:26:38.058Z,29.97
2022-08-25T16:29:17.139Z,29.86
2022-08-25T16:31:45.719Z,29.75
2022-08-25T16:34:22.157Z,29.66
2022-08-25T16:36:53.582Z,29.64
2022-08-25T16:39:23.951Z,29.63
2022-08-25T16:41:52.518Z,29.60
2022-08-25T16:44:22.602Z,29.57
2022-08-25T16:46:54.462Z,29.48
2022-08-25T16:49:24.512Z,29.43
2022-08-25T16:51:57.332Z,29.35
2022-08-25T16:54:42.692Z,29.29
2022-08-25T16:57:10.669Z,29.20
2022-08-25T16:59:38.582Z,29.01
2022-08-25T17:02:06.900Z,28.82
2022-08-25T17:04:34.969Z,28.67
2022-08-25T17:07:03.197Z,28.55
2022-08-25T17:09:32.826Z,28.43
2022-08-25T17:12:00.447Z,28.32
2022-08-25T17:14:28.753Z,28.20
2022-08-25T17:16:56.360Z,28.11
2022-08-25T17:19:25.744Z,27.94
2022-08-25T17:21:55.039Z,27.78
2022-08-25T17:24:29.379Z,27.69
2022-08-25T17:27:01.460Z,27.58
2022-08-25T17:29:29.702Z,27.45
2022-08-25T17:31:58.373Z,27.30
2022-08-25T17:34:27.979Z,27.17
2022-08-25T17:36:57.293Z,27.01
2022-08-25T17:39:25.837Z,26.88
2022-08-25T17:41:54.661Z,26.74
2022-08-25T17:44:22.388Z,26.65
2022-08-25T17:46:51.795Z,26.56
2022-08-25T17:49:19.585Z,26.48
2022-08-25T17:51:47.466Z,26.39
2022-08-25T17:54:15.202Z,26.30
2022-08-25T17:56:44.367Z,26.21
2022-08-25T17:59:13.701Z,26.13
2022-08-25T18:01:42.210Z,26.03
2022-08-25T18:04:17.371Z,25.97
2022-08-25T18:06:48.363Z,25.89
2022-08-25T18:09:16.597Z,25.83
2022-08-25T18:11:45.709Z,25.74
2022-08-25T18:14:16.415Z,25.66
2022-08-25T18:16:45.264Z,25.64
2022-08-25T18:19:14.357Z,25.61
2022-08-25T18:21:43.251Z,25.62
2022-08-25T18:24:11.818Z,25.60
2022-08-25T18:26:41.435Z,25.53
2022-08-25T18:29:12.913Z,25.45
2022-08-25T18:31:41.735Z,25.40
2022-08-25T18:34:11.293Z,25.35
2022-08-25T18:36:39.277Z,25.31
2022-08-25T18:39:23.406Z,25.30
2022-08-25T18:41:51.158Z,25.23
2022-08-25T18:44:19.105Z,25.15
2022-08-25T18:46:47.602Z,25.11
2022-08-25T18:49:17.129Z,25.09
2022-08-25T18:51:46.839Z,25.07
2022-08-25T18:54:23.184Z,25.03
2022-08-25T18:56:53.221Z,24.99
2022-08-25T18:59:23.625Z,24.93
2022-08-25T19:01:53.995Z,24.89
2022-08-25T19:04:31.788Z,24.84
2022-08-25T19:07:01.788Z,24.84
2022-08-25T19:09:32.084Z,24.82
2022-08-25T19:12:00.281Z,24.78
2022-08-25T19:14:28.482Z,24.73
2022-08-25T19:17:01.014Z,24.69
2022-08-25T19:19:28.893Z,24.64
2022-08-25T19:21:58.140Z,24.59
2022-08-25T19:24:28.224Z,24.53
2022-08-25T19:26:56.935Z,24.50
2022-08-25T19:29:26.411Z,24.50
2022-08-25T19:31:54.824Z,24.48
2022-08-25T19:34:28.320Z,24.43
2022-08-25T19:37:01.743Z,24.36
2022-08-25T19:39:35.025Z,24.32
2022-08-25T19:42:03.361Z,24.29
2022-08-25T19:44:32.148Z,24.24
2022-08-25T19:47:00.006Z,24.19
2022-08-25T19:49:34.121Z,24.14
2022-08-25T19:52:10.596Z,24.10
2022-08-25T19:54:45.723Z,24.05
2022-08-25T19:57:27.785Z,24.01
2022-08-25T19:59:56.851Z,23.97
2022-08-25T20:02:29.464Z,23.93
2022-08-25T20:04:59.433Z,23.90
2022-08-25T20:07:30.407Z,23.88
2022-08-25T20:10:00.693Z,23.87
2022-08-25T20:12:28.941Z,23.87
2022-08-25T20:14:57.743Z,23.84
2022-08-25T20:17:28.220Z,23.81
2022-08-25T20:19:59.999Z,23.79
2022-08-25T20:22:30.351Z,23.76
2022-08-25T20:25:02.349Z,23.72
2022-08-25T20:27:36.548Z,23.68
2022-08-25T20:30:08.206Z,23.62
2022-08-25T20:32:37.151Z,23.57
2022-08-25T20:35:08.979Z,23.52
2022-08-25T20:37:37.291Z,23.46
2022-08-25T20:40:06.797Z,23.40
2022-08-25T20:42:35.214Z,23.36
2022-08-25T20:45:07.542Z,23.30
2022-08-25T20:47:36.261Z,23.24
2022-08-25T20:50:06.961Z,23.20
2022-08-25T20:52:34.934Z,23.18
2022-08-25T20:55:04.806Z,23.15
2022-08-25T20:57:33.152Z,23.12
2022-08-25T21:00:02.355Z,23.09
2022-08-25T21:02:30.468Z,23.04
2022-08-25T21:04:58.088Z,22.99
2022-08-25T21:07:26.148Z,22.96
2022-08-25T21:09:55.942Z,22.91
2022-08-25T21:12:23.847Z,22.83
2022-08-25T21:14:51.756Z,22.79
2022-08-25T21:17:20.338Z,22.75
2022-08-25T21:22:16.799Z,22.69
2022-08-25T21:24:45.052Z,22.66
2022-08-25T21:27:13.093Z,22.63
2022-08-25T21:29:54.421Z,22.58
2022-08-25T21:32:24.404Z,22.55
2022-08-25T21:34:57.134Z,22.55
2022-08-25T21:37:26.781Z,22.57
2022-08-25T21:39:54.676Z,22.57
2022-08-25T21:42:23.862Z,22.57
2022-08-25T21:44:53.034Z,22.57
2022-08-25T21:47:21.682Z,22.55
2022-08-25T21:49:51.019Z,22.53
2022-08-25T21:52:19.020Z,22.52
2022-08-25T21:54:46.651Z,22.48
2022-08-25T21:57:16.675Z,22.45
2022-08-25T21:59:45.164Z,22.41
2022-08-25T22:02:13.958Z,22.38
2022-08-25T22:04:42.123Z,22.36
2022-08-25T22:07:11.091Z,22.35
2022-08-25T22:09:40.007Z,22.36
2022-08-25T22:12:08.592Z,22.38
2022-08-25T22:14:37.593Z,22.41
2022-08-25T22:17:09.023Z,22.42
2022-08-25T22:19:38.848Z,22.40
2022-08-25T22:22:06.830Z,22.39
2022-08-25T22:24:34.575Z,22.38
2022-08-25T22:27:02.236Z,22.39
2022-08-25T22:29:30.666Z,22.39
2022-08-25T22:32:02.162Z,22.37
2022-08-25T22:34:34.530Z,22.35
2022-08-25T22:37:04.482Z,22.34
2022-08-25T22:39:34.236Z,22.34
2022-08-25T22:42:03.704Z,22.34
2022-08-25T22:44:31.440Z,22.31
2022-08-25T22:46:59.034Z,22.28
2022-08-25T22:49:29.152Z,22.22
2022-08-25T22:51:57.870Z,22.17
2022-08-25T22:54:25.747Z,22.13
2022-08-25T22:56:53.724Z,22.11
2022-08-25T22:59:22.503Z,22.06
2022-08-25T23:01:52.661Z,22.02
2022-08-25T23:04:22.912Z,21.98
2022-08-25T23:06:53.000Z,21.93
2022-08-25T23:09:21.483Z,21.88
2022-08-25T23:11:51.217Z,21.85
2022-08-25T23:14:19.964Z,21.83
2022-08-25T23:16:50.183Z,21.81
2022-08-25T23:19:18.327Z,21.77
2022-08-25T23:22:02.507Z,21.74
2022-08-25T23:24:31.121Z,21.75
2022-08-25T23:27:00.764Z,21.74
2022-08-25T23:29:29.900Z,21.73
2022-08-25T23:31:58.586Z,21.70
2022-08-25T23:34:26.665Z,21.70
2022-08-25T23:36:56.907Z,21.68
2022-08-25T23:39:24.953Z,21.67
2022-08-25T23:41:53.202Z,21.67
2022-08-25T23:44:23.144Z,21.66
2022-08-25T23:46:53.739Z,21.63
2022-08-25T23:49:23.601Z,21.59
2022-08-25T23:51:52.937Z,21.56
2022-08-25T23:54:21.383Z,21.53
2022-08-25T23:56:52.436Z,21.50
2022-08-25T23:59:24.510Z,21.47
